Wetterdaten: Woche 07.03.11 - 13.03.11 (KW10)
Datum Zeit Temp. A. Feuchte A. Luftdruck Regen Wind Richtung Taupunkt Windchill Windben
07.03.2011 00:00 -1,0 C 48 % 1030,7 hPa 0,0 l/m 1,0 km/h NW -10,6 C -1,0 C 4,8 km/h
07.03.2011 01:00 -1,4 C 51 % 1031,3 hPa 0,0 l/m 1,9 km/h NW -10,2 C -1,4 C 5,6 km/h
07.03.2011 02:00 -1,7 C 53 % 1031,8 hPa 0,0 l/m 1,4 km/h NW -10,1 C -1,7 C 4,4 km/h
07.03.2011 03:00 -2,2 C 55 % 1032,3 hPa 0,0 l/m 0,4 km/h N -10,0 C -2,2 C 3,2 km/h
07.03.2011 04:00 -2,6 C 58 % 1032,6 hPa 0,0 l/m 1,4 km/h NW -9,7 C -2,6 C 5,2 km/h
07.03.2011 05:00 -2,5 C 58 % 1033,3 hPa 0,0 l/m 1,6 km/h NW -9,6 C -2,5 C 5,2 km/h
07.03.2011 06:00 -2,7 C 59 % 1034,1 hPa 0,0 l/m 2,5 km/h NW -9,5 C -2,7 C 6,4 km/h
07.03.2011 07:00 -2,3 C 60 % 1034,9 hPa 0,0 l/m 3,4 km/h NW -8,9 C -2,3 C 8,8 km/h
07.03.2011 08:00 -1,0 C 59 % 1035,9 hPa 0,0 l/m 4,8 km/h N -8,1 C -1,4 C 13,3 km/h
07.03.2011 09:00 -0,1 C 57 % 1036,6 hPa 0,0 l/m 9,5 km/h NO -7,6 C -3,1 C 22,1 km/h
07.03.2011 10:00 0,7 C 53 % 1036,9 hPa 0,0 l/m 8,9 km/h N-NO -7,9 C -1,7 C 20,5 km/h
07.03.2011 11:00 2,1 C 43 % 1037,0 hPa 0,0 l/m 9,2 km/h N-NO -9,3 C -0,5 C 21,3 km/h
07.03.2011 12:00 2,8 C 35 % 1036,8 hPa 0,0 l/m 12,4 km/h NO -11,0 C -2,1 C 29,8 km/h
07.03.2011 13:00 3,3 C 34 % 1036,9 hPa 0,0 l/m 12,0 km/h NO -11,1 C -1,2 C 27,0 km/h
07.03.2011 14:00 3,5 C 34 % 1036,8 hPa 0,0 l/m 11,1 km/h N-NO -11,0 C -0,3 C 26,2 km/h
07.03.2011 15:00 3,7 C 33 % 1036,6 hPa 0,0 l/m 7,6 km/h NO -11,0 C 2,5 C 20,9 km/h
07.03.2011 16:00 3,3 C 30 % 1036,6 hPa 0,0 l/m 6,8 km/h N -12,5 C 2,6 C 18,1 km/h
07.03.2011 17:00 2,4 C 32 % 1036,8 hPa 0,0 l/m 4,3 km/h NO -12,5 C 2,4 C 10,5 km/h
07.03.2011 18:00 1,1 C 36 % 1037,3 hPa 0,0 l/m 2,2 km/h NO -12,4 C 1,1 C 7,2 km/h
07.03.2011 19:00 -1,0 C 42 % 1037,8 hPa 0,0 l/m 0,1 km/h N -12,2 C -1,0 C 2,0 km/h
07.03.2011 20:00 -2,6 C 49 % 1038,0 hPa 0,0 l/m 0,0 km/h N -12,0 C -2,6 C 0,4 km/h
07.03.2011 21:00 -4,0 C 54 % 1038,3 hPa 0,0 l/m 0,0 km/h N -11,9 C -4,0 C 1,6 km/h
07.03.2011 22:00 -4,7 C 57 % 1038,4 hPa 0,0 l/m 0,1 km/h N -11,8 C -4,7 C 1,2 km/h
07.03.2011 23:00 -5,8 C 62 % 1038,3 hPa 0,0 l/m 0,0 km/h N -11,8 C -5,8 C 0,8 km/h
08.03.2011 00:00 -6,4 C 66 % 1038,3 hPa 0,0 l/m 0,0 km/h N -11,8 C -6,4 C 0,8 km/h
08.03.2011 01:00 -6,4 C 67 % 1038,1 hPa 0,0 l/m 0,1 km/h N -11,5 C -6,4 C 3,6 km/h
08.03.2011 02:00 -6,7 C 67 % 1037,7 hPa 0,0 l/m 0,0 km/h N -11,9 C -6,7 C 0,8 km/h
08.03.2011 03:00 -7,5 C 69 % 1037,3 hPa 0,0 l/m 0,0 km/h N -12,2 C -7,5 C 0,4 km/h
08.03.2011 04:00 -8,6 C 72 % 1037,0 hPa 0,0 l/m 0,0 km/h N -12,8 C -8,6 C 0,0 km/h
08.03.2011 05:00 -9,6 C 75 % 1036,8 hPa 0,0 l/m 0,0 km/h N -13,2 C -9,6 C 0,4 km/h
08.03.2011 06:00 -10,0 C 78 % 1036,7 hPa 0,0 l/m 0,0 km/h N -13,2 C -10,0 C 0,0 km/h
08.03.2011 07:00 -9,0 C 81 % 1036,3 hPa 0,0 l/m 0,0 km/h N -11,7 C -9,0 C 0,0 km/h
08.03.2011 08:00 -5,0 C 77 % 1035,8 hPa 0,0 l/m 0,2 km/h N -8,5 C -5,0 C 2,4 km/h
08.03.2011 09:00 -1,3 C 60 % 1035,2 hPa 0,0 l/m 0,7 km/h O -8,1 C -1,3 C 4,4 km/h
08.03.2011 10:00 2,0 C 46 % 1034,3 hPa 0,0 l/m 3,4 km/h O-SO -8,4 C 2,0 C 13,7 km/h
08.03.2011 11:00 4,2 C 38 % 1033,6 hPa 0,0 l/m 3,8 km/h O -9,0 C 4,2 C 12,5 km/h
08.03.2011 12:00 5,3 C 37 % 1032,9 hPa 0,0 l/m 6,7 km/h O -8,4 C 4,9 C 18,1 km/h
08.03.2011 13:00 6,0 C 33 % 1031,9 hPa 0,0 l/m 6,9 km/h O-SO -9,0 C 5,3 C 18,9 km/h
08.03.2011 14:00 6,7 C 30 % 1031,1 hPa 0,0 l/m 5,0 km/h SO -9,7 C 6,7 C 16,9 km/h
08.03.2011 15:00 6,5 C 31 % 1030,4 hPa 0,0 l/m 6,7 km/h O -9,4 C 5,9 C 18,1 km/h
08.03.2011 16:00 5,6 C 33 % 1029,9 hPa 0,0 l/m 5,7 km/h O-SO -9,3 C 5,6 C 16,1 km/h
08.03.2011 17:00 4,3 C 36 % 1029,5 hPa 0,0 l/m 3,9 km/h O-SO -9,5 C 4,3 C 11,3 km/h
08.03.2011 18:00 2,7 C 39 % 1029,4 hPa 0,0 l/m 0,4 km/h N -9,8 C 2,7 C 4,4 km/h
08.03.2011 19:00 0,8 C 43 % 1029,0 hPa 0,0 l/m 0,0 km/h N -10,2 C 0,8 C 0,8 km/h
08.03.2011 20:00 -1,8 C 50 % 1028,4 hPa 0,0 l/m 0,0 km/h N -10,8 C -1,8 C 0,0 km/h
08.03.2011 21:00 -3,6 C 58 % 1028,1 hPa 0,0 l/m 0,0 km/h N -10,7 C -3,6 C 0,0 km/h
08.03.2011 22:00 -4,7 C 65 % 1027,6 hPa 0,0 l/m 0,0 km/h N -10,3 C -4,7 C 0,0 km/h
08.03.2011 23:00 -5,3 C 69 % 1027,1 hPa 0,0 l/m 0,0 km/h N -10,2 C -5,3 C 0,0 km/h
09.03.2011 00:00 -5,9 C 71 % 1026,6 hPa 0,0 l/m 0,0 km/h N -10,3 C -5,9 C 0,0 km/h
09.03.2011 01:00 -6,4 C 74 % 1026,3 hPa 0,0 l/m 0,0 km/h N -10,3 C -6,4 C 0,0 km/h
09.03.2011 02:00 -6,9 C 76 % 1025,8 hPa 0,0 l/m 0,0 km/h N -10,4 C -6,9 C 0,0 km/h
09.03.2011 03:00 -7,0 C 77 % 1025,7 hPa 0,0 l/m 0,0 km/h N -10,3 C -7,0 C 0,0 km/h
09.03.2011 04:00 -7,5 C 78 % 1025,7 hPa 0,0 l/m 0,0 km/h N -10,6 C -7,5 C 0,4 km/h
09.03.2011 05:00 -7,5 C 80 % 1025,6 hPa 0,0 l/m 0,0 km/h N -10,4 C -7,5 C 0,0 km/h
09.03.2011 06:00 -7,6 C 80 % 1025,6 hPa 0,0 l/m 0,0 km/h N -10,5 C -7,6 C 0,0 km/h
09.03.2011 07:00 -6,8 C 82 % 1025,6 hPa 0,0 l/m 0,0 km/h N -9,4 C -6,8 C 0,0 km/h
09.03.2011 08:00 -3,3 C 77 % 1025,3 hPa 0,0 l/m 0,1 km/h N -6,7 C -3,3 C 1,6 km/h
09.03.2011 09:00 -0,2 C 62 % 1025,0 hPa 0,0 l/m 0,5 km/h O -6,6 C -0,2 C 3,2 km/h
09.03.2011 10:00 1,3 C 55 % 1024,7 hPa 0,0 l/m 1,8 km/h O-NO -6,9 C 1,3 C 4,8 km/h
09.03.2011 11:00 3,3 C 49 % 1024,3 hPa 0,0 l/m 1,7 km/h O -6,3 C 3,3 C 6,4 km/h
09.03.2011 12:00 5,0 C 46 % 1023,6 hPa 0,0 l/m 2,4 km/h O -5,8 C 5,0 C 7,2 km/h
09.03.2011 13:00 6,7 C 42 % 1022,6 hPa 0,0 l/m 2,4 km/h S-SO -5,3 C 6,7 C 8,0 km/h
09.03.2011 14:00 8,0 C 39 % 1021,8 hPa 0,0 l/m 2,8 km/h O -5,2 C 8,0 C 10,1 km/h
09.03.2011 15:00 8,6 C 39 % 1021,1 hPa 0,0 l/m 1,9 km/h S -4,7 C 8,6 C 6,8 km/h
09.03.2011 16:00 8,4 C 39 % 1020,7 hPa 0,0 l/m 1,1 km/h O-SO -4,9 C 8,4 C 5,2 km/h
09.03.2011 17:00 7,2 C 40 % 1020,5 hPa 0,0 l/m 0,8 km/h N -5,4 C 7,2 C 5,6 km/h
09.03.2011 18:00 5,6 C 44 % 1020,8 hPa 0,0 l/m 0,1 km/h N -5,6 C 5,6 C 2,8 km/h
09.03.2011 19:00 3,2 C 49 % 1020,6 hPa 0,0 l/m 0,0 km/h N -6,4 C 3,2 C 0,4 km/h
09.03.2011 20:00 0,5 C 57 % 1020,6 hPa 0,0 l/m 0,0 km/h N -6,9 C 0,5 C 0,4 km/h
09.03.2011 21:00 -1,0 C 64 % 1020,5 hPa 0,0 l/m 0,0 km/h N -6,9 C -1,0 C 0,8 km/h
09.03.2011 22:00 -2,1 C 69 % 1020,4 hPa 0,0 l/m 0,0 km/h N -7,1 C -2,1 C 0,4 km/h
09.03.2011 23:00 -2,3 C 72 % 1020,1 hPa 0,0 l/m 0,0 km/h N -6,7 C -2,3 C 0,0 km/h
10.03.2011 00:00 -2,3 C 75 % 1020,0 hPa 0,0 l/m 0,0 km/h N -6,2 C -2,3 C 1,2 km/h
10.03.2011 01:00 -1,7 C 76 % 1019,8 hPa 0,0 l/m 0,0 km/h N -5,3 C -1,7 C 0,4 km/h
10.03.2011 02:00 -0,9 C 76 % 1019,5 hPa 0,0 l/m 0,2 km/h N -4,5 C -0,9 C 2,8 km/h
10.03.2011 03:00 -0,0 C 74 % 1019,5 hPa 0,0 l/m 0,3 km/h N -4,1 C -0,0 C 2,4 km/h
10.03.2011 04:00 -0,1 C 74 % 1019,5 hPa 0,0 l/m 0,1 km/h N -4,1 C -0,1 C 1,2 km/h
10.03.2011 05:00 -0,4 C 77 % 1019,6 hPa 0,0 l/m 0,3 km/h N -3,9 C -0,4 C 2,8 km/h
10.03.2011 06:00 -0,6 C 79 % 1019,5 hPa 0,0 l/m 0,0 km/h N -3,8 C -0,6 C 1,2 km/h
10.03.2011 07:00 -0,7 C 80 % 1020,0 hPa 0,0 l/m 0,0 km/h N -3,7 C -0,7 C 1,6 km/h
10.03.2011 08:00 0,2 C 79 % 1020,9 hPa 0,0 l/m 0,5 km/h N -3,0 C 0,2 C 3,2 km/h
10.03.2011 09:00 1,0 C 77 % 1021,2 hPa 0,3 l/m 0,1 km/h N -2,5 C 1,0 C 2,0 km/h
10.03.2011 10:00 1,4 C 79 % 1021,2 hPa 0,3 l/m 0,1 km/h N -1,7 C 1,4 C 1,6 km/h
10.03.2011 11:00 1,9 C 82 % 1020,8 hPa 0,3 l/m 0,0 km/h N -0,8 C 1,9 C 1,2 km/h
10.03.2011 12:00 2,9 C 84 % 1020,6 hPa 0,3 l/m 0,1 km/h N 0,5 C 2,9 C 1,2 km/h
10.03.2011 13:00 3,5 C 84 % 1020,2 hPa 0,0 l/m 0,3 km/h O-NO 1,1 C 3,5 C 1,2 km/h
10.03.2011 14:00 4,4 C 84 % 1019,7 hPa 0,0 l/m 0,6 km/h N 1,9 C 4,4 C 2,8 km/h
10.03.2011 15:00 5,8 C 84 % 1019,2 hPa 0,0 l/m 0,3 km/h N 3,3 C 5,8 C 2,8 km/h
10.03.2011 16:00 7,8 C 81 % 1018,6 hPa 0,0 l/m 0,7 km/h S-SO 4,7 C 7,8 C 4,4 km/h
10.03.2011 17:00 7,5 C 78 % 1018,5 hPa 0,0 l/m 0,0 km/h N 3,9 C 7,5 C 1,6 km/h
10.03.2011 18:00 5,8 C 78 % 1018,6 hPa 0,0 l/m 0,0 km/h N 2,2 C 5,8 C 1,2 km/h
10.03.2011 19:00 3,1 C 78 % 1019,0 hPa 0,0 l/m 0,0 km/h N -0,3 C 3,1 C 0,8 km/h
10.03.2011 20:00 1,2 C 82 % 1019,1 hPa 0,0 l/m 0,1 km/h N -1,5 C 1,2 C 1,2 km/h
10.03.2011 21:00 -0,1 C 84 % 1019,2 hPa 0,0 l/m 0,0 km/h N -2,6 C -0,1 C 0,0 km/h
10.03.2011 22:00 -1,1 C 84 % 1019,0 hPa 0,0 l/m 0,0 km/h N -3,5 C -1,1 C 0,4 km/h
10.03.2011 23:00 -1,8 C 85 % 1018,7 hPa 0,0 l/m 0,0 km/h N -4,0 C -1,8 C 0,0 km/h
11.03.2011 00:00 -2,2 C 85 % 1018,7 hPa 0,0 l/m 0,0 km/h N -4,4 C -2,2 C 0,4 km/h
11.03.2011 01:00 -2,0 C 85 % 1018,9 hPa 0,0 l/m 0,1 km/h N -4,2 C -2,0 C 1,6 km/h
11.03.2011 02:00 -1,2 C 84 % 1018,7 hPa 0,0 l/m 0,1 km/h N -3,5 C -1,2 C 1,6 km/h
11.03.2011 03:00 -1,3 C 84 % 1018,7 hPa 0,0 l/m 0,3 km/h N -3,6 C -1,3 C 5,2 km/h
11.03.2011 04:00 -0,2 C 84 % 1018,8 hPa 0,0 l/m 0,4 km/h N -2,5 C -0,2 C 3,6 km/h
11.03.2011 05:00 0,8 C 83 % 1018,7 hPa 0,0 l/m 0,1 km/h N -1,8 C 0,8 C 2,8 km/h
11.03.2011 06:00 2,2 C 83 % 1019,1 hPa 0,0 l/m 0,3 km/h N -0,4 C 2,2 C 4,0 km/h
11.03.2011 07:00 2,6 C 83 % 1019,6 hPa 0,0 l/m 0,1 km/h N 0,0 C 2,6 C 2,4 km/h
11.03.2011 08:00 4,4 C 83 % 1020,3 hPa 0,3 l/m 2,7 km/h W-SW 1,8 C 4,4 C 12,1 km/h
11.03.2011 09:00 9,5 C 61 % 1020,4 hPa 0,0 l/m 8,3 km/h W-NW 2,4 C 8,2 C 23,6 km/h
11.03.2011 10:00 10,9 C 54 % 1020,7 hPa 0,0 l/m 6,7 km/h W-SW 2,0 C 10,4 C 23,1 km/h
11.03.2011 11:00 11,6 C 52 % 1020,6 hPa 0,0 l/m 6,9 km/h W 1,9 C 11,3 C 22,1 km/h
11.03.2011 12:00 12,7 C 47 % 1020,4 hPa 0,0 l/m 9,9 km/h S 1,6 C 10,6 C 24,9 km/h
11.03.2011 13:00 13,5 C 44 % 1019,7 hPa 0,0 l/m 11,7 km/h W 1,3 C 10,7 C 29,8 km/h
11.03.2011 14:00 13,8 C 42 % 1019,1 hPa 0,0 l/m 13,0 km/h W 1,0 C 10,5 C 26,9 km/h
11.03.2011 15:00 13,7 C 42 % 1018,6 hPa 0,0 l/m 13,6 km/h W-NW 0,8 C 10,1 C 31,0 km/h
11.03.2011 16:00 13,3 C 43 % 1018,7 hPa 0,0 l/m 11,0 km/h W 0,8 C 10,8 C 25,7 km/h
11.03.2011 17:00 12,3 C 46 % 1018,9 hPa 0,0 l/m 6,0 km/h W-SW 0,9 C 11,9 C 20,9 km/h
11.03.2011 18:00 10,9 C 50 % 1019,3 hPa 0,0 l/m 1,6 km/h SW 0,8 C 10,9 C 8,0 km/h
11.03.2011 19:00 8,2 C 56 % 1019,8 hPa 0,0 l/m 0,4 km/h N 0,0 C 8,2 C 3,6 km/h
11.03.2011 20:00 6,0 C 63 % 1020,0 hPa 0,0 l/m 0,0 km/h N -0,6 C 6,0 C 0,8 km/h
11.03.2011 21:00 5,1 C 68 % 1020,1 hPa 0,0 l/m 0,2 km/h N -0,4 C 5,1 C 3,2 km/h
11.03.2011 22:00 3,6 C 72 % 1020,4 hPa 0,0 l/m 0,2 km/h N -1,1 C 3,6 C 2,0 km/h
11.03.2011 23:00 3,6 C 74 % 1020,4 hPa 0,0 l/m 2,2 km/h W-SW -0,5 C 3,6 C 9,6 km/h
12.03.2011 00:00 3,6 C 72 % 1020,2 hPa 0,0 l/m 0,8 km/h W-SW -0,9 C 3,6 C 3,6 km/h
12.03.2011 01:00 2,4 C 76 % 1020,2 hPa 0,0 l/m 0,2 km/h N -1,5 C 2,4 C 3,2 km/h
12.03.2011 02:00 0,9 C 75 % 1019,9 hPa 0,0 l/m 0,0 km/h N -3,0 C 0,9 C 0,0 km/h
12.03.2011 03:00 -1,1 C 79 % 1019,8 hPa 0,0 l/m 0,0 km/h N -4,3 C -1,1 C 0,0 km/h
12.03.2011 04:00 -1,8 C 82 % 1019,8 hPa 0,0 l/m 0,0 km/h N -4,5 C -1,8 C 0,0 km/h
12.03.2011 05:00 -2,2 C 84 % 1019,7 hPa 0,0 l/m 0,1 km/h N -4,6 C -2,2 C 0,8 km/h
12.03.2011 06:00 -2,9 C 84 % 1019,7 hPa 0,0 l/m 0,0 km/h N -5,2 C -2,9 C 0,4 km/h
12.03.2011 07:00 -1,9 C 84 % 1019,6 hPa 0,0 l/m 0,1 km/h N -4,2 C -1,9 C 0,4 km/h
12.03.2011 08:00 1,4 C 84 % 1019,0 hPa 0,0 l/m 0,3 km/h O -1,0 C 1,4 C 2,4 km/h
12.03.2011 09:00 5,1 C 77 % 1018,3 hPa 0,0 l/m 2,6 km/h O 1,3 C 5,1 C 6,8 km/h
12.03.2011 10:00 7,5 C 66 % 1017,3 hPa 0,0 l/m 2,1 km/h O-NO 1,6 C 7,5 C 8,0 km/h
12.03.2011 11:00 10,6 C 55 % 1016,0 hPa 0,0 l/m 5,1 km/h O-SO 2,0 C 10,6 C 15,7 km/h
12.03.2011 12:00 11,7 C 53 % 1015,0 hPa 0,0 l/m 4,8 km/h O-SO 2,5 C 11,7 C 16,5 km/h
12.03.2011 13:00 13,1 C 49 % 1013,3 hPa 0,0 l/m 6,9 km/h O-SO 2,7 C 12,6 C 20,5 km/h
12.03.2011 14:00 14,9 C 41 % 1011,9 hPa 0,0 l/m 6,8 km/h SO 1,9 C 14,7 C 21,7 km/h
12.03.2011 15:00 14,8 C 41 % 1011,3 hPa 0,0 l/m 6,3 km/h O-SO 1,8 C 14,5 C 23,3 km/h
12.03.2011 16:00 14,7 C 41 % 1010,7 hPa 0,0 l/m 6,4 km/h O-SO 1,7 C 14,5 C 24,9 km/h
12.03.2011 17:00 14,5 C 42 % 1010,3 hPa 0,0 l/m 8,4 km/h S-SW 1,6 C 13,5 C 28,6 km/h
12.03.2011 18:00 13,2 C 43 % 1010,1 hPa 0,0 l/m 5,6 km/h S-SO 1,0 C 13,1 C 19,3 km/h
12.03.2011 19:00 11,8 C 46 % 1010,0 hPa 0,0 l/m 3,6 km/h S-SO 0,4 C 11,8 C 10,9 km/h
12.03.2011 20:00 10,7 C 46 % 1009,7 hPa 0,0 l/m 2,4 km/h S-SO -0,3 C 10,7 C 9,6 km/h
12.03.2011 21:00 10,0 C 47 % 1009,5 hPa 0,0 l/m 0,6 km/h N -1,0 C 10,0 C 4,4 km/h
12.03.2011 22:00 9,3 C 47 % 1009,3 hPa 0,0 l/m 2,2 km/h S -1,4 C 9,3 C 8,4 km/h
12.03.2011 23:00 8,2 C 49 % 1009,0 hPa 0,0 l/m 0,5 km/h N -1,9 C 8,2 C 4,0 km/h
13.03.2011 00:00 6,1 C 57 % 1008,9 hPa 0,0 l/m 0,2 km/h N -1,7 C 6,1 C 2,0 km/h
13.03.2011 01:00 3,9 C 63 % 1008,5 hPa 0,0 l/m 0,3 km/h N -2,4 C 3,9 C 2,4 km/h
13.03.2011 02:00 2,7 C 68 % 1008,1 hPa 0,0 l/m 0,1 km/h N -2,7 C 2,7 C 2,4 km/h
13.03.2011 03:00 1,5 C 71 % 1007,8 hPa 0,0 l/m 0,5 km/h N -3,2 C 1,5 C 3,6 km/h
13.03.2011 04:00 1,4 C 70 % 1007,8 hPa 0,0 l/m 0,1 km/h N -3,5 C 1,4 C 2,0 km/h
13.03.2011 05:00 0,2 C 72 % 1008,5 hPa 0,0 l/m 0,0 km/h N -4,2 C 0,2 C 1,2 km/h
13.03.2011 06:00 -0,1 C 75 % 1009,5 hPa 0,0 l/m 0,2 km/h N -4,0 C -0,1 C 2,0 km/h
13.03.2011 07:00 1,7 C 76 % 1009,9 hPa 0,0 l/m 0,2 km/h N -2,2 C 1,7 C 2,4 km/h
13.03.2011 08:00 6,0 C 63 % 1010,3 hPa 0,0 l/m 0,4 km/h N -0,6 C 6,0 C 3,2 km/h
13.03.2011 09:00 8,7 C 56 % 1010,4 hPa 0,0 l/m 0,8 km/h O-NO 0,3 C 8,7 C 4,3 km/h
13.03.2011 10:00 11,4 C 50 % 1009,9 hPa 0,0 l/m 1,6 km/h NO 1,3 C 11,4 C 7,2 km/h
13.03.2011 11:00 14,4 C 45 % 1009,5 hPa 0,0 l/m 1,6 km/h W-SW 2,6 C 14,4 C 6,4 km/h
13.03.2011 12:00 17,1 C 41 % 1009,2 hPa 0,0 l/m 1,6 km/h S-SO 3,6 C 17,1 C 9,6 km/h
13.03.2011 13:00 18,2 C 34 % 1009,0 hPa 0,0 l/m 6,4 km/h S 2,0 C 18,2 C 25,8 km/h
13.03.2011 14:00 17,0 C 35 % 1009,1 hPa 0,0 l/m 7,2 km/h S-SO 1,5 C 16,7 C 27,4 km/h
13.03.2011 15:00 16,5 C 38 % 1009,4 hPa 0,0 l/m 10,5 km/h S-SO 1,9 C 14,5 C 31,4 km/h
13.03.2011 16:00 15,9 C 41 % 1009,8 hPa 0,0 l/m 5,6 km/h S-SO 2,5 C 15,5 C 24,1 km/h
13.03.2011 17:00 14,8 C 46 % 1009,7 hPa 0,0 l/m 6,4 km/h S 3,1 C 14,8 C 24,9 km/h
13.03.2011 18:00 13,9 C 47 % 1010,0 hPa 0,0 l/m 4,8 km/h S-SO 2,8 C 13,9 C 21,7 km/h
13.03.2011 19:00 13,3 C 50 % 1010,1 hPa 0,0 l/m 11,3 km/h S 2,9 C 10,6 C 28,2 km/h
13.03.2011 20:00 12,9 C 52 % 1010,3 hPa 0,0 l/m 14,1 km/h S 3,2 C 9,0 C 34,9 km/h
13.03.2011 21:00 12,7 C 53 % 1010,5 hPa 0,0 l/m 8,8 km/h S-SO 3,3 C 11,2 C 24,1 km/h
13.03.2011 22:00 11,8 C 57 % 1010,6 hPa 0,0 l/m 4,5 km/h SO 3,6 C 11,8 C 19,7 km/h
13.03.2011 23:00 11,1 C 58 % 1010,7 hPa 0,0 l/m 2,5 km/h SO 3,2 C 11,1 C 8,0 km/h
Min-Datum _ 08.03.11 08.03.11 13.03.11 - 07.03.11 - 08.03.11 08.03.11 07.03.11
_ Min-Zeit 06:30 14:30 03:45 - 03:45 - 05:30 06:30 20:15
Minimum _ -10,1 C 29 % 1007,7 hPa - 0,0 km/h - -13,4 C -10,1 C 0,0 km/h
Max-Datum _ 13.03.11 10.03.11 07.03.11 10.03.11 11.03.11 - 10.03.11 13.03.11 12.03.11
_ Max-Zeit 13:00 23:15 21:45 09:45 15:15 - 16:15 13:00 17:30
Maximum _ 18,3 C 85 % 1038,5 hPa 0,3 l/m 15,4 km/h
W-NW
- 4,9 C 18,2 C 40,2 km/h
S
Durchschnitt _ 3,1 C 61 % 1022,2 hPa #1,3 l/m 2,5 km/h S-SO -4,3 C 2,8 C 8,1 km/h